createdAt,value
2016-12-13T00:00:21.208Z,-84
2016-12-13T00:01:21.204Z,-84
2016-12-13T00:02:21.077Z,-85
2016-12-13T00:03:21.230Z,-84
2016-12-13T00:04:21.317Z,-84
2016-12-13T00:05:21.170Z,-84
2016-12-13T00:06:21.228Z,-84
2016-12-13T00:07:21.216Z,-85
2016-12-13T00:08:21.162Z,-85
2016-12-13T00:09:21.341Z,-84
2016-12-13T00:10:21.233Z,-85
2016-12-13T00:11:21.222Z,-84
2016-12-13T00:12:21.328Z,-85
2016-12-13T00:13:21.244Z,-84
2016-12-13T00:14:21.090Z,-84
2016-12-13T00:15:21.269Z,-84
2016-12-13T00:16:21.171Z,-84
2016-12-13T00:17:21.193Z,-85
2016-12-13T00:18:21.173Z,-84
2016-12-13T00:19:21.183Z,-84
2016-12-13T00:20:21.264Z,-85
2016-12-13T00:21:21.190Z,-85
2016-12-13T00:22:21.259Z,-84
2016-12-13T00:23:21.218Z,-85
2016-12-13T00:24:21.343Z,-85
2016-12-13T00:25:21.319Z,-84
2016-12-13T00:26:21.266Z,-85
2016-12-13T00:27:21.216Z,-85
2016-12-13T00:28:21.255Z,-84
2016-12-13T00:29:21.232Z,-85
2016-12-13T00:30:21.344Z,-84
2016-12-13T00:31:21.174Z,-85
2016-12-13T00:32:21.215Z,-85
2016-12-13T00:33:21.253Z,-84
2016-12-13T00:34:21.302Z,-84
2016-12-13T00:35:21.152Z,-85
2016-12-13T00:36:21.318Z,-84
2016-12-13T00:37:21.311Z,-84
2016-12-13T00:38:21.347Z,-84
2016-12-13T00:39:21.319Z,-85
2016-12-13T00:40:21.329Z,-84
2016-12-13T00:41:21.290Z,-84
2016-12-13T00:42:21.353Z,-84
2016-12-13T00:43:21.400Z,-84
2016-12-13T00:44:21.327Z,-85
2016-12-13T00:45:21.333Z,-85
2016-12-13T00:46:21.263Z,-85
2016-12-13T00:47:21.286Z,-84
2016-12-13T00:48:21.184Z,-85
2016-12-13T00:49:21.187Z,-84
2016-12-13T00:50:21.368Z,-84
2016-12-13T00:51:21.283Z,-85
2016-12-13T00:52:21.497Z,-84
2016-12-13T00:53:21.359Z,-85
2016-12-13T00:54:21.365Z,-85
2016-12-13T00:55:21.216Z,-84
2016-12-13T00:56:21.289Z,-85
2016-12-13T00:57:21.340Z,-84
2016-12-13T00:58:21.440Z,-85
2016-12-13T00:59:21.390Z,-85
2016-12-13T01:00:21.307Z,-84
2016-12-13T01:01:21.536Z,-85
2016-12-13T01:02:21.464Z,-85
2016-12-13T01:03:21.432Z,-84
2016-12-13T01:04:21.472Z,-85
2016-12-13T01:05:21.385Z,-85
2016-12-13T01:06:21.462Z,-84
2016-12-13T01:07:21.324Z,-84
2016-12-13T01:08:21.451Z,-85
2016-12-13T01:09:21.422Z,-84
2016-12-13T01:10:21.414Z,-84
2016-12-13T01:11:21.344Z,-85
2016-12-13T01:12:21.401Z,-84
2016-12-13T01:13:21.387Z,-85
2016-12-13T01:14:21.277Z,-84
2016-12-13T01:15:21.340Z,-84
2016-12-13T01:16:21.346Z,-84
2016-12-13T01:17:21.258Z,-84
2016-12-13T01:18:21.344Z,-84
2016-12-13T01:19:21.314Z,-84
2016-12-13T01:20:21.356Z,-85
2016-12-13T01:21:21.465Z,-83
2016-12-13T01:22:21.429Z,-85
2016-12-13T01:23:21.383Z,-84
2016-12-13T01:24:21.457Z,-84
2016-12-13T01:25:21.437Z,-85
2016-12-13T01:26:21.309Z,-85
2016-12-13T01:27:21.374Z,-85
2016-12-13T01:28:21.371Z,-85
2016-12-13T01:29:21.604Z,-85
2016-12-13T01:30:21.854Z,-84
2016-12-13T01:31:21.402Z,-84
2016-12-13T01:32:21.525Z,-85
2016-12-13T01:33:21.319Z,-85
2016-12-13T01:34:21.396Z,-84
2016-12-13T01:35:21.465Z,-84
2016-12-13T01:36:21.410Z,-84
2016-12-13T01:37:21.587Z,-84
2016-12-13T01:38:21.491Z,-84
2016-12-13T01:39:21.425Z,-84
2016-12-13T01:40:21.523Z,-84
2016-12-13T01:41:21.411Z,-85
2016-12-13T01:42:21.494Z,-85
2016-12-13T01:43:21.584Z,-84
2016-12-13T01:44:21.434Z,-84
2016-12-13T01:45:21.688Z,-84
2016-12-13T01:46:22.170Z,-84
2016-12-13T01:47:21.416Z,-84
2016-12-13T01:48:21.341Z,-85
2016-12-13T01:49:21.521Z,-84
2016-12-13T01:50:21.436Z,-85
2016-12-13T01:51:21.479Z,-84
2016-12-13T01:52:21.449Z,-84
2016-12-13T01:53:21.422Z,-84
2016-12-13T01:54:21.512Z,-84
2016-12-13T01:55:21.468Z,-84
2016-12-13T01:56:21.477Z,-85
2016-12-13T01:57:21.461Z,-84
2016-12-13T01:58:21.556Z,-85
2016-12-13T01:59:21.633Z,-84
2016-12-13T02:00:21.455Z,-84
2016-12-13T02:01:21.642Z,-85
2016-12-13T02:02:21.668Z,-84
2016-12-13T02:03:21.578Z,-84
2016-12-13T02:04:21.491Z,-83
2016-12-13T02:05:21.627Z,-85
2016-12-13T02:06:21.579Z,-85
2016-12-13T02:07:21.608Z,-84
2016-12-13T02:08:21.568Z,-84
2016-12-13T02:09:21.505Z,-83
2016-12-13T02:10:21.564Z,-84
2016-12-13T02:11:21.712Z,-85
2016-12-13T02:12:21.601Z,-84
2016-12-13T02:13:21.497Z,-84
2016-12-13T02:14:21.581Z,-85
2016-12-13T02:15:21.542Z,-84
2016-12-13T02:16:21.439Z,-84
2016-12-13T02:17:21.547Z,-84
2016-12-13T02:18:21.545Z,-84
2016-12-13T02:19:21.610Z,-84
2016-12-13T02:20:21.594Z,-84
2016-12-13T02:21:21.672Z,-85
2016-12-13T02:22:21.522Z,-85
2016-12-13T02:23:21.581Z,-85
2016-12-13T02:24:21.613Z,-85
2016-12-13T02:25:21.518Z,-85
2016-12-13T02:26:21.681Z,-84
2016-12-13T02:27:21.552Z,-85
2016-12-13T02:28:21.513Z,-85
2016-12-13T02:29:21.581Z,-84
2016-12-13T02:30:21.550Z,-85
2016-12-13T02:31:21.563Z,-85
2016-12-13T02:32:21.612Z,-85
2016-12-13T02:33:21.594Z,-85
2016-12-13T02:34:21.604Z,-85
2016-12-13T02:35:21.735Z,-85
2016-12-13T02:36:21.714Z,-85
2016-12-13T02:37:21.657Z,-84
2016-12-13T02:38:21.729Z,-85
2016-12-13T02:39:21.598Z,-85
2016-12-13T02:40:21.672Z,-85
2016-12-13T02:41:21.577Z,-85
2016-12-13T02:42:21.607Z,-85
2016-12-13T02:43:21.691Z,-85
2016-12-13T02:44:21.644Z,-85
2016-12-13T02:45:21.670Z,-85
2016-12-13T02:46:21.670Z,-85
2016-12-13T02:47:21.573Z,-85
2016-12-13T02:48:21.625Z,-85
2016-12-13T02:49:21.791Z,-85
2016-12-13T02:50:21.696Z,-85
2016-12-13T02:51:21.584Z,-85
2016-12-13T02:52:21.696Z,-85
2016-12-13T02:53:21.547Z,-85
2016-12-13T02:54:21.693Z,-85
2016-12-13T02:55:21.725Z,-84
2016-12-13T02:56:21.540Z,-85
2016-12-13T02:57:21.555Z,-84
2016-12-13T02:58:21.629Z,-85
2016-12-13T02:59:21.699Z,-85
2016-12-13T03:00:21.633Z,-85
2016-12-13T03:01:21.698Z,-85
2016-12-13T03:02:21.643Z,-84
2016-12-13T03:03:22.566Z,-85
2016-12-13T03:04:21.706Z,-85
2016-12-13T03:05:21.732Z,-85
2016-12-13T03:06:21.736Z,-84
2016-12-13T03:07:21.634Z,-85
2016-12-13T03:08:21.561Z,-85
2016-12-13T03:09:21.655Z,-84
2016-12-13T03:10:21.649Z,-85
2016-12-13T03:11:21.843Z,-85
2016-12-13T03:12:21.643Z,-84
2016-12-13T03:13:21.580Z,-85
2016-12-13T03:14:21.727Z,-85
2016-12-13T03:15:21.719Z,-85
2016-12-13T03:16:21.966Z,-85
2016-12-13T03:17:21.657Z,-84
2016-12-13T03:18:21.666Z,-85
2016-12-13T03:19:21.605Z,-84
2016-12-13T03:20:21.744Z,-85
2016-12-13T03:21:21.630Z,-85
2016-12-13T03:22:21.758Z,-85
2016-12-13T03:23:21.674Z,-84
2016-12-13T03:24:21.699Z,-84
2016-12-13T03:25:21.750Z,-85
2016-12-13T03:26:21.768Z,-84
2016-12-13T03:27:21.656Z,-85
2016-12-13T03:28:21.696Z,-84
2016-12-13T03:29:21.692Z,-85
2016-12-13T03:30:21.768Z,-84
2016-12-13T03:31:21.616Z,-85
2016-12-13T03:32:21.808Z,-85
2016-12-13T03:33:21.697Z,-85
2016-12-13T03:34:21.796Z,-85
2016-12-13T03:35:21.703Z,-85
2016-12-13T03:36:21.795Z,-84
2016-12-13T03:37:21.688Z,-84
2016-12-13T03:38:21.803Z,-84
2016-12-13T03:39:21.814Z,-85
2016-12-13T03:40:21.664Z,-85
2016-12-13T03:41:21.719Z,-84
2016-12-13T03:42:21.744Z,-85
2016-12-13T03:43:21.859Z,-84
2016-12-13T03:44:21.881Z,-84
2016-12-13T03:45:21.805Z,-84
2016-12-13T03:46:21.742Z,-85
2016-12-13T03:47:21.750Z,-85
2016-12-13T03:48:21.748Z,-85
2016-12-13T03:49:21.821Z,-85
2016-12-13T03:50:21.826Z,-85
2016-12-13T03:51:21.817Z,-84
2016-12-13T03:52:21.776Z,-85
2016-12-13T03:53:21.880Z,-85
2016-12-13T03:54:21.785Z,-84
2016-12-13T03:55:21.877Z,-84
2016-12-13T03:56:21.785Z,-85
2016-12-13T03:57:21.699Z,-85
2016-12-13T03:58:21.786Z,-84
2016-12-13T03:59:21.797Z,-85
2016-12-13T04:00:21.775Z,-85
2016-12-13T04:01:21.778Z,-84
2016-12-13T04:02:21.713Z,-84
2016-12-13T04:03:21.707Z,-85
2016-12-13T04:04:22.047Z,-84
2016-12-13T04:05:21.733Z,-85
2016-12-13T04:06:21.791Z,-85
2016-12-13T04:07:21.795Z,-85
2016-12-13T04:08:21.733Z,-85
2016-12-13T04:09:21.845Z,-85
2016-12-13T04:10:21.887Z,-84
2016-12-13T04:11:21.732Z,-84
2016-12-13T04:12:22.122Z,-84
2016-12-13T04:13:22.038Z,-85
2016-12-13T04:14:21.763Z,-84
2016-12-13T04:15:21.769Z,-84
2016-12-13T04:16:21.963Z,-84
2016-12-13T04:17:21.826Z,-85
2016-12-13T04:18:21.832Z,-84
2016-12-13T04:19:21.859Z,-85
2016-12-13T04:20:21.855Z,-85
2016-12-13T04:21:21.834Z,-84
2016-12-13T04:22:21.838Z,-85
2016-12-13T04:23:21.858Z,-84
2016-12-13T04:24:21.844Z,-85
2016-12-13T04:25:22.112Z,-84
2016-12-13T04:26:21.993Z,-84
2016-12-13T04:27:21.847Z,-84
2016-12-13T04:28:21.912Z,-85
2016-12-13T04:29:22.006Z,-84
2016-12-13T04:30:21.922Z,-84
2016-12-13T04:31:21.974Z,-84
2016-12-13T04:32:21.937Z,-85
2016-12-13T04:33:21.869Z,-84
2016-12-13T04:34:21.873Z,-84
2016-12-13T04:35:21.878Z,-85
2016-12-13T04:36:21.909Z,-85
2016-12-13T04:37:21.943Z,-85
2016-12-13T04:38:21.963Z,-85
2016-12-13T04:39:22.051Z,-85
2016-12-13T04:40:21.910Z,-86
2016-12-13T04:41:22.001Z,-85
2016-12-13T04:42:21.907Z,-85
2016-12-13T04:43:21.921Z,-84
2016-12-13T04:44:22.073Z,-84
2016-12-13T04:45:21.928Z,-84
2016-12-13T04:46:21.916Z,-84
2016-12-13T04:47:22.105Z,-84
2016-12-13T04:48:22.041Z,-85
2016-12-13T04:49:22.054Z,-84
2016-12-13T04:50:21.933Z,-85
2016-12-13T04:51:22.042Z,-84
2016-12-13T04:52:22.252Z,-84
2016-12-13T04:53:21.999Z,-84
2016-12-13T04:54:21.947Z,-84
2016-12-13T04:55:22.165Z,-84
2016-12-13T04:56:21.938Z,-84
2016-12-13T04:57:22.142Z,-85
2016-12-13T04:58:22.195Z,-84
2016-12-13T04:59:21.949Z,-85
2016-12-13T05:00:21.958Z,-84
2016-12-13T05:01:22.117Z,-84
2016-12-13T05:02:21.941Z,-84
2016-12-13T05:03:22.120Z,-84
2016-12-13T05:04:21.893Z,-85
2016-12-13T05:05:21.968Z,-84
2016-12-13T05:06:22.119Z,-84
2016-12-13T05:07:22.064Z,-84
2016-12-13T05:08:22.000Z,-84
2016-12-13T05:09:22.049Z,-84
2016-12-13T05:10:22.050Z,-84
2016-12-13T05:11:21.980Z,-84
2016-12-13T05:12:21.985Z,-84
2016-12-13T05:13:22.170Z,-84
2016-12-13T05:14:22.162Z,-84
2016-12-13T05:15:22.079Z,-84
2016-12-13T05:16:22.017Z,-84
2016-12-13T05:17:22.014Z,-84
2016-12-13T05:18:22.086Z,-84
2016-12-13T05:19:22.263Z,-84
2016-12-13T05:20:22.062Z,-84
2016-12-13T05:21:22.011Z,-84
2016-12-13T05:22:21.996Z,-84
2016-12-13T05:23:22.000Z,-84
2016-12-13T05:24:22.107Z,-84
2016-12-13T05:25:22.092Z,-84
2016-12-13T05:26:22.028Z,-84
2016-12-13T05:27:22.092Z,-85
2016-12-13T05:28:22.102Z,-84
2016-12-13T05:29:22.054Z,-84
2016-12-13T05:30:22.338Z,-84
2016-12-13T05:31:22.167Z,-84
2016-12-13T05:32:22.111Z,-84
2016-12-13T05:33:22.164Z,-84
2016-12-13T05:34:22.037Z,-84
2016-12-13T05:35:22.169Z,-84
2016-12-13T05:36:22.139Z,-85
2016-12-13T05:37:22.194Z,-84
2016-12-13T05:38:21.973Z,-84
2016-12-13T05:39:22.077Z,-84
2016-12-13T05:40:22.089Z,-84
2016-12-13T05:41:22.145Z,-84
2016-12-13T05:42:22.009Z,-84
2016-12-13T05:43:22.138Z,-84
2016-12-13T05:44:22.156Z,-83
2016-12-13T05:45:22.227Z,-84
2016-12-13T05:46:22.202Z,-84
2016-12-13T05:47:22.171Z,-84
2016-12-13T05:48:22.150Z,-84
2016-12-13T05:49:22.012Z,-84
2016-12-13T05:50:22.253Z,-85
2016-12-13T05:51:22.067Z,-85
2016-12-13T05:52:22.018Z,-85
2016-12-13T05:53:22.100Z,-85
2016-12-13T05:54:22.103Z,-85
2016-12-13T05:55:22.106Z,-85
2016-12-13T05:56:22.109Z,-85
2016-12-13T05:57:22.097Z,-85
2016-12-13T05:58:22.191Z,-85
2016-12-13T05:59:22.173Z,-85
2016-12-13T06:00:22.119Z,-85
2016-12-13T06:01:22.146Z,-85
2016-12-13T06:02:22.186Z,-85
2016-12-13T06:03:22.146Z,-85
2016-12-13T06:04:22.271Z,-84
2016-12-13T06:05:22.273Z,-84
2016-12-13T06:06:22.203Z,-84
2016-12-13T06:07:22.231Z,-84
2016-12-13T06:08:22.124Z,-85
2016-12-13T06:09:22.065Z,-84
2016-12-13T06:10:22.216Z,-84
2016-12-13T06:11:22.235Z,-84
2016-12-13T06:12:22.226Z,-84
2016-12-13T06:13:22.219Z,-85
2016-12-13T06:14:22.141Z,-84
2016-12-13T06:15:22.248Z,-84
2016-12-13T06:16:22.221Z,-85
2016-12-13T06:17:22.223Z,-85
2016-12-13T06:18:22.174Z,-85
2016-12-13T06:19:22.162Z,-84
2016-12-13T06:20:22.179Z,-84
2016-12-13T06:21:22.291Z,-84
2016-12-13T06:22:22.184Z,-85
2016-12-13T06:23:22.154Z,-85
2016-12-13T06:24:22.178Z,-84
2016-12-13T06:25:22.193Z,-84
2016-12-13T06:26:22.117Z,-84
2016-12-13T06:27:22.267Z,-85
2016-12-13T06:28:22.279Z,-84
2016-12-13T06:29:22.260Z,-85
2016-12-13T06:30:22.291Z,-85
2016-12-13T06:31:22.252Z,-84
2016-12-13T06:32:22.166Z,-85
2016-12-13T06:33:22.300Z,-84
2016-12-13T06:34:22.199Z,-84
2016-12-13T06:35:22.287Z,-85
2016-12-13T06:36:22.207Z,-85
2016-12-13T06:37:22.223Z,-85
2016-12-13T06:38:22.279Z,-84
2016-12-13T06:39:22.432Z,-85
2016-12-13T06:40:22.243Z,-84
2016-12-13T06:41:22.306Z,-84
2016-12-13T06:42:22.227Z,-85
2016-12-13T06:43:22.320Z,-84
2016-12-13T06:44:22.280Z,-84
2016-12-13T06:45:22.369Z,-84
2016-12-13T06:46:22.366Z,-84
2016-12-13T06:47:22.344Z,-84
2016-12-13T06:48:22.228Z,-84
2016-12-13T06:49:22.344Z,-84
2016-12-13T06:50:22.322Z,-83
2016-12-13T06:51:22.258Z,-84
2016-12-13T06:52:22.362Z,-84
2016-12-13T06:53:22.264Z,-84
2016-12-13T06:54:22.245Z,-85
2016-12-13T06:55:22.498Z,-85
2016-12-13T06:56:22.281Z,-84
2016-12-13T06:57:22.271Z,-84
2016-12-13T06:58:22.225Z,-84
2016-12-13T06:59:22.527Z,-83
2016-12-13T07:00:22.288Z,-84
2016-12-13T07:01:22.330Z,-84
2016-12-13T07:02:22.386Z,-84
2016-12-13T07:03:22.347Z,-84
2016-12-13T07:04:22.340Z,-84
2016-12-13T07:05:22.458Z,-84
2016-12-13T07:06:22.400Z,-84
2016-12-13T07:07:22.464Z,-84
2016-12-13T07:08:22.396Z,-92
2016-12-13T07:09:22.299Z,-90
2016-12-13T07:10:22.934Z,-88
2016-12-13T07:11:25.062Z,-88
2016-12-13T07:12:22.408Z,-88
2016-12-13T07:13:22.415Z,-89
2016-12-13T07:14:24.498Z,-90
2016-12-13T07:15:23.155Z,-89
2016-12-13T07:16:26.425Z,-89
2016-12-13T07:17:22.407Z,-89
2016-12-13T07:18:22.920Z,-88
2016-12-13T07:19:22.393Z,-89
2016-12-13T07:20:22.404Z,-88
2016-12-13T07:21:22.749Z,-88
2016-12-13T07:22:22.585Z,-89
2016-12-13T07:23:22.414Z,-88
2016-12-13T07:24:22.490Z,-89
2016-12-13T07:25:22.374Z,-88
2016-12-13T07:26:22.444Z,-88
2016-12-13T07:27:22.357Z,-88
2016-12-13T07:28:22.497Z,-88
2016-12-13T07:29:22.428Z,-89
2016-12-13T07:30:22.404Z,-87
2016-12-13T07:31:22.463Z,-89
2016-12-13T07:32:22.433Z,-87
2016-12-13T07:33:22.491Z,-88
2016-12-13T07:34:22.486Z,-86
2016-12-13T07:35:22.318Z,-89
2016-12-13T07:36:22.475Z,-87
2016-12-13T07:37:22.482Z,-88
2016-12-13T07:38:22.440Z,-88
2016-12-13T07:39:22.320Z,-87
2016-12-13T07:40:22.499Z,-88
2016-12-13T07:41:22.345Z,-89
2016-12-13T07:42:22.430Z,-88
2016-12-13T07:43:22.534Z,-88
2016-12-13T07:44:22.525Z,-89
2016-12-13T07:45:22.507Z,-88
2016-12-13T07:46:22.514Z,-88
2016-12-13T07:47:22.456Z,-88
2016-12-13T07:48:22.539Z,-86
2016-12-13T07:49:22.783Z,-88
2016-12-13T07:50:22.642Z,-88
2016-12-13T07:51:22.514Z,-88
2016-12-13T07:52:22.781Z,-88
2016-12-13T07:53:22.542Z,-87
2016-12-13T07:54:22.565Z,-87
2016-12-13T07:55:22.439Z,-87
2016-12-13T07:56:22.487Z,-87
2016-12-13T07:57:22.529Z,-87
2016-12-13T07:58:22.591Z,-87
2016-12-13T07:59:22.690Z,-88
2016-12-13T08:00:22.570Z,-88
2016-12-13T08:01:22.669Z,-87
2016-12-13T08:02:22.560Z,-87
2016-12-13T08:03:22.689Z,-87
2016-12-13T08:04:22.439Z,-88
2016-12-13T08:05:22.703Z,-88
2016-12-13T08:06:22.486Z,-88
2016-12-13T08:07:22.714Z,-88
2016-12-13T08:08:22.561Z,-87
2016-12-13T08:09:22.723Z,-87
2016-12-13T08:10:22.735Z,-88
2016-12-13T08:11:22.421Z,-88
2016-12-13T08:12:24.222Z,-87
2016-12-13T08:13:26.499Z,-88
2016-12-13T08:14:22.499Z,-87
2016-12-13T08:15:22.563Z,-88
2016-12-13T08:16:22.556Z,-87
2016-12-13T08:17:22.678Z,-87
2016-12-13T08:18:22.803Z,-88
2016-12-13T08:19:22.721Z,-87
2016-12-13T08:20:22.682Z,-88
2016-12-13T08:21:22.561Z,-88
2016-12-13T08:22:23.732Z,-87
2016-12-13T08:23:22.620Z,-88
2016-12-13T08:24:22.821Z,-88
2016-12-13T08:25:22.797Z,-88
2016-12-13T08:26:22.465Z,-88
2016-12-13T08:27:22.597Z,-87
2016-12-13T08:28:22.606Z,-87
2016-12-13T08:29:22.631Z,-88
2016-12-13T08:30:22.579Z,-88
2016-12-13T08:31:22.549Z,-87
2016-12-13T08:32:22.556Z,-87
2016-12-13T08:33:22.703Z,-88
2016-12-13T08:34:22.687Z,-87
2016-12-13T08:35:22.612Z,-87
2016-12-13T08:36:22.640Z,-88
2016-12-13T08:37:22.608Z,-88
2016-12-13T08:38:22.754Z,-88
2016-12-13T08:39:22.708Z,-88
2016-12-13T08:40:22.644Z,-87
2016-12-13T08:41:22.733Z,-88
2016-12-13T08:42:22.718Z,-87
2016-12-13T08:43:22.652Z,-88
2016-12-13T08:44:22.668Z,-87
2016-12-13T08:45:23.498Z,-88
2016-12-13T08:46:25.565Z,-88
2016-12-13T08:47:24.883Z,-87
2016-12-13T08:48:23.511Z,-87
2016-12-13T08:49:22.781Z,-87
2016-12-13T08:50:22.729Z,-88
2016-12-13T08:51:22.871Z,-87
2016-12-13T08:52:22.809Z,-88
2016-12-13T08:53:24.063Z,-88
2016-12-13T08:54:22.756Z,-87
2016-12-13T08:55:22.809Z,-88
2016-12-13T08:56:22.717Z,-86
2016-12-13T08:57:22.998Z,-87
2016-12-13T08:58:22.639Z,-86
2016-12-13T08:59:22.737Z,-88
2016-12-13T09:00:22.749Z,-87
2016-12-13T09:01:22.744Z,-87
2016-12-13T09:02:22.778Z,-89
2016-12-13T09:03:22.644Z,-89
2016-12-13T09:04:22.700Z,-89
2016-12-13T09:05:22.847Z,-89
2016-12-13T09:06:22.701Z,-90
2016-12-13T09:07:22.758Z,-88
2016-12-13T09:08:22.770Z,-89
2016-12-13T09:09:22.679Z,-89
2016-12-13T09:10:22.800Z,-90
2016-12-13T09:11:22.782Z,-90
2016-12-13T09:12:22.756Z,-89
2016-12-13T09:13:23.781Z,-89
2016-12-13T09:14:22.958Z,-89
2016-12-13T09:15:22.713Z,-88
2016-12-13T09:16:22.698Z,-89
2016-12-13T09:17:22.871Z,-89
2016-12-13T09:18:22.837Z,-89
2016-12-13T09:19:22.919Z,-89
2016-12-13T09:20:22.892Z,-89
2016-12-13T09:21:23.773Z,-89
2016-12-13T09:22:23.691Z,-90
2016-12-13T09:23:25.910Z,-89
2016-12-13T09:24:23.966Z,-89
2016-12-13T09:25:23.370Z,-89
2016-12-13T09:26:22.865Z,-90
2016-12-13T09:27:22.717Z,-89
2016-12-13T09:28:22.729Z,-88
2016-12-13T09:29:23.059Z,-89
2016-12-13T09:30:23.451Z,-90
2016-12-13T09:31:22.890Z,-90
2016-12-13T09:32:22.759Z,-90
2016-12-13T09:33:22.736Z,-91
2016-12-13T09:34:22.880Z,-87
2016-12-13T09:35:23.010Z,-88
2016-12-13T09:36:22.821Z,-87
2016-12-13T09:37:23.028Z,-87
2016-12-13T09:38:22.846Z,-87
2016-12-13T09:39:22.966Z,-87
2016-12-13T09:40:22.859Z,-87
2016-12-13T09:41:22.879Z,-87
2016-12-13T09:42:23.022Z,-87
2016-12-13T09:43:23.693Z,-87
2016-12-13T09:44:22.734Z,-87
2016-12-13T09:45:23.229Z,-87
2016-12-13T09:46:22.851Z,-87
2016-12-13T09:47:23.024Z,-88
2016-12-13T09:48:22.831Z,-87
2016-12-13T09:49:22.931Z,-88
2016-12-13T09:50:22.981Z,-87
2016-12-13T09:51:22.857Z,-88
2016-12-13T09:52:22.991Z,-87
2016-12-13T09:53:22.866Z,-88
2016-12-13T09:54:22.913Z,-87
2016-12-13T09:55:23.068Z,-88
2016-12-13T09:56:22.808Z,-88
2016-12-13T09:57:22.985Z,-88
2016-12-13T09:58:23.109Z,-88
2016-12-13T09:59:22.912Z,-89
2016-12-13T10:00:24.533Z,-88
2016-12-13T10:01:32.788Z,-89
2016-12-13T10:02:24.293Z,-91
2016-12-13T10:03:24.871Z,-89
2016-12-13T10:04:25.576Z,-89
2016-12-13T10:05:25.850Z,-90
2016-12-13T10:06:24.774Z,-89
2016-12-13T10:07:25.442Z,-90
2016-12-13T10:08:23.885Z,-88
2016-12-13T10:09:23.867Z,-88
2016-12-13T10:10:46.682Z,-88
2016-12-13T10:11:23.675Z,-89
2016-12-13T10:12:24.449Z,-88
2016-12-13T10:13:23.611Z,-89
2016-12-13T10:14:23.810Z,-89
2016-12-13T10:15:23.746Z,-89
2016-12-13T10:16:30.949Z,-90
2016-12-13T10:17:25.553Z,-91
2016-12-13T10:18:26.672Z,-91
2016-12-13T10:19:28.496Z,-90
2016-12-13T10:20:24.725Z,-91
2016-12-13T10:21:25.965Z,-91
2016-12-13T10:22:24.986Z,-88
2016-12-13T10:23:26.499Z,-90
2016-12-13T10:24:24.136Z,-88
2016-12-13T10:25:24.971Z,-88
2016-12-13T10:26:23.829Z,-88
2016-12-13T10:27:24.624Z,-88
2016-12-13T10:28:24.125Z,-89
2016-12-13T10:29:23.790Z,-89
2016-12-13T10:30:24.199Z,-88
2016-12-13T10:31:25.334Z,-89
2016-12-13T10:32:23.759Z,-88
2016-12-13T10:33:23.918Z,-88
2016-12-13T10:34:24.275Z,-90
2016-12-13T10:35:25.404Z,-89
2016-12-13T10:36:24.588Z,-89
2016-12-13T10:37:23.863Z,-88
2016-12-13T10:38:23.767Z,-89
2016-12-13T10:39:24.842Z,-88
2016-12-13T10:40:25.541Z,-88
2016-12-13T10:41:24.513Z,-89
2016-12-13T10:42:23.627Z,-89
2016-12-13T10:43:24.431Z,-89
2016-12-13T10:44:24.107Z,-89
2016-12-13T10:45:23.998Z,-88
2016-12-13T10:46:24.843Z,-89
2016-12-13T10:47:24.244Z,-89
2016-12-13T10:48:24.574Z,-90
2016-12-13T10:49:23.741Z,-89
2016-12-13T10:50:23.731Z,-89
2016-12-13T10:51:23.960Z,-90
2016-12-13T10:52:23.933Z,-90
2016-12-13T10:53:30.752Z,-90
2016-12-13T10:54:24.583Z,-91
2016-12-13T10:55:24.026Z,-90
2016-12-13T10:56:23.602Z,-90
2016-12-13T10:57:24.313Z,-90
2016-12-13T10:58:23.993Z,-90
2016-12-13T10:59:23.876Z,-89
2016-12-13T11:00:24.820Z,-90
2016-12-13T11:01:24.320Z,-90
2016-12-13T11:02:23.827Z,-89
2016-12-13T11:03:23.558Z,-90
2016-12-13T11:04:24.041Z,-91
2016-12-13T11:05:23.903Z,-90
2016-12-13T11:06:23.551Z,-90
2016-12-13T11:07:24.851Z,-91
2016-12-13T11:08:23.730Z,-90
2016-12-13T11:09:24.583Z,-91
2016-12-13T11:10:25.030Z,-92
2016-12-13T11:11:23.153Z,-90
2016-12-13T11:12:23.086Z,-90
2016-12-13T11:13:23.156Z,-89
2016-12-13T11:14:23.595Z,-91
2016-12-13T11:15:23.056Z,-91
2016-12-13T11:16:23.089Z,-91
2016-12-13T11:17:23.220Z,-91
2016-12-13T11:18:24.503Z,-90
2016-12-13T11:19:23.101Z,-90
2016-12-13T11:20:23.042Z,-92
2016-12-13T11:21:23.196Z,-92
2016-12-13T11:22:23.566Z,-91
2016-12-13T11:23:23.372Z,-92
2016-12-13T11:24:23.048Z,-92
2016-12-13T11:25:23.349Z,-92
2016-12-13T11:26:23.238Z,-92
2016-12-13T11:27:23.911Z,-92
2016-12-13T11:28:23.114Z,-91
2016-12-13T11:29:23.315Z,-91
2016-12-13T11:30:23.086Z,-90
2016-12-13T11:31:23.221Z,-92
2016-12-13T11:32:23.111Z,-92
2016-12-13T11:33:23.155Z,-93
2016-12-13T11:34:23.251Z,-91
2016-12-13T11:35:23.235Z,-92
2016-12-13T11:36:23.004Z,-93
2016-12-13T11:37:23.188Z,-92
2016-12-13T11:38:23.109Z,-93
2016-12-13T11:39:23.235Z,-92
2016-12-13T11:40:23.229Z,-93
2016-12-13T11:41:23.201Z,-92
2016-12-13T11:42:23.284Z,-92
2016-12-13T11:43:23.185Z,-91
2016-12-13T11:44:23.232Z,-92
2016-12-13T11:45:23.393Z,-91
2016-12-13T11:46:23.195Z,-92
2016-12-13T11:47:23.977Z,-91
2016-12-13T11:48:23.296Z,-91
2016-12-13T11:49:23.259Z,-91
2016-12-13T11:50:23.235Z,-91
2016-12-13T11:51:23.272Z,-91
2016-12-13T11:52:23.168Z,-91
2016-12-13T11:53:23.109Z,-89
2016-12-13T11:54:23.051Z,-91
2016-12-13T11:55:23.510Z,-90
2016-12-13T11:56:23.375Z,-91
2016-12-13T11:57:23.120Z,-90
2016-12-13T11:58:23.057Z,-90
2016-12-13T11:59:24.527Z,-90
2016-12-13T12:00:23.390Z,-90
2016-12-13T12:01:23.100Z,-90
2016-12-13T12:02:23.190Z,-91
2016-12-13T12:03:23.145Z,-93
2016-12-13T12:04:23.258Z,-92
2016-12-13T12:05:23.126Z,-91
2016-12-13T12:06:23.111Z,-89
2016-12-13T12:07:23.216Z,-93
2016-12-13T12:08:23.251Z,-89
2016-12-13T12:09:23.170Z,-93
2016-12-13T12:10:23.306Z,-92
2016-12-13T12:11:23.437Z,-89
2016-12-13T12:12:23.947Z,-90
2016-12-13T12:13:23.440Z,-90
2016-12-13T12:14:23.522Z,-90
2016-12-13T12:15:23.435Z,-93
2016-12-13T12:16:23.294Z,-89
2016-12-13T12:17:23.380Z,-91
2016-12-13T12:18:23.173Z,-89
2016-12-13T12:19:23.153Z,-92
2016-12-13T12:20:23.359Z,-93
2016-12-13T12:21:23.179Z,-92
2016-12-13T12:22:23.219Z,-95
2016-12-13T12:23:23.222Z,-92
2016-12-13T12:24:23.221Z,-90
2016-12-13T12:25:23.513Z,-90
2016-12-13T12:26:23.551Z,-94
2016-12-13T12:27:24.251Z,-87
2016-12-13T12:28:23.424Z,-88
2016-12-13T12:29:23.296Z,-93
2016-12-13T12:30:23.477Z,-94
2016-12-13T12:31:23.656Z,-91
2016-12-13T12:32:23.654Z,-91
2016-12-13T12:33:23.429Z,-95
2016-12-13T12:34:23.369Z,-90
2016-12-13T12:35:23.535Z,-91
2016-12-13T12:36:23.231Z,-96
2016-12-13T12:37:23.405Z,-90
2016-12-13T12:38:23.555Z,-91
2016-12-13T12:39:23.476Z,-91
2016-12-13T12:40:23.743Z,-91
2016-12-13T12:41:23.600Z,-91
2016-12-13T12:42:23.423Z,-89
2016-12-13T12:43:23.584Z,-90
2016-12-13T12:44:23.402Z,-91
2016-12-13T12:45:23.300Z,-90
2016-12-13T12:46:23.374Z,-90
2016-12-13T12:47:23.379Z,-90
2016-12-13T12:48:23.425Z,-90
2016-12-13T12:49:23.404Z,-89
2016-12-13T12:50:23.620Z,-89
2016-12-13T12:51:23.286Z,-90
2016-12-13T12:52:24.108Z,-90
2016-12-13T12:53:23.413Z,-90
2016-12-13T12:54:23.431Z,-90
2016-12-13T12:55:23.432Z,-90
2016-12-13T12:56:23.374Z,-90
2016-12-13T12:57:23.473Z,-90
2016-12-13T12:58:23.541Z,-89
2016-12-13T12:59:23.389Z,-90
2016-12-13T13:00:23.724Z,-90
2016-12-13T13:01:23.434Z,-88
2016-12-13T13:02:27.758Z,-88
2016-12-13T13:03:23.659Z,-88
2016-12-13T13:04:26.883Z,-88
2016-12-13T13:05:25.013Z,-89
2016-12-13T13:06:24.539Z,-88
2016-12-13T13:07:23.977Z,-89
2016-12-13T13:08:23.938Z,-90
2016-12-13T13:09:23.489Z,-89
2016-12-13T13:10:23.865Z,-88
2016-12-13T13:11:24.791Z,-89
2016-12-13T13:12:24.230Z,-89
2016-12-13T13:13:24.960Z,-88
2016-12-13T13:14:24.536Z,-89
2016-12-13T13:15:24.415Z,-89
2016-12-13T13:16:23.649Z,-88
2016-12-13T13:17:23.668Z,-89
2016-12-13T13:18:23.471Z,-88
2016-12-13T13:19:23.385Z,-89
2016-12-13T13:20:23.579Z,-89
2016-12-13T13:21:23.490Z,-89
2016-12-13T13:22:23.401Z,-90
2016-12-13T13:23:23.447Z,-90
2016-12-13T13:24:23.445Z,-89
2016-12-13T13:25:23.564Z,-90
2016-12-13T13:26:23.597Z,-89
2016-12-13T13:27:23.554Z,-89
2016-12-13T13:28:23.694Z,-90
2016-12-13T13:29:23.703Z,-89
2016-12-13T13:30:23.575Z,-90
2016-12-13T13:31:23.663Z,-91
2016-12-13T13:32:23.536Z,-90
2016-12-13T13:33:24.005Z,-90
2016-12-13T13:34:25.511Z,-90
2016-12-13T13:35:23.719Z,-90
2016-12-13T13:36:24.018Z,-90
2016-12-13T13:37:27.625Z,-90
2016-12-13T13:38:23.355Z,-88
2016-12-13T13:39:23.472Z,-90
2016-12-13T13:40:23.455Z,-89
2016-12-13T13:41:23.517Z,-90
2016-12-13T13:42:23.637Z,-89
2016-12-13T13:43:23.502Z,-89
2016-12-13T13:44:23.647Z,-90
2016-12-13T13:45:23.702Z,-90
2016-12-13T13:46:23.661Z,-91